SWA6132 KVPS-KBNA
Flight info
| Callsign | SWA6132 |
|---|---|
| Flight time | 0h 58m |
| Altitude | 32000 |
| Route | MGMRY TINCA CHSNE2 |
| Aircraft | B737/M-SDE2E3GIJ4RWZ/LB1D1 |
Departure
| Time | 2026-04-18 10:54 |
|---|---|
| Airport | Destin-Fort Walton Beach Airport (KVPS) |
Arrival
| Time | 2026-04-18 11:52 |
|---|---|
| Airport | Nashville International Airport (KBNA) |
| Time | Latitude | Longitude | Altitude | Speed | Heading |
|---|---|---|---|---|---|
| 2026-04-18 10:44 | 30.47697 | -86.51346 | 58 ft | 0 kts | 180° |
| 2026-04-18 10:52 | 30.47691 | -86.51346 | 53 ft | 0 kts | 180° |
| 2026-04-18 10:52 | 30.47656 | -86.51373 | 58 ft | 11 kts | 241° |
| 2026-04-18 10:52 | 30.47592 | -86.51440 | 58 ft | 14 kts | 221° |
| 2026-04-18 10:52 | 30.47553 | -86.51549 | 58 ft | 16 kts | 258° |
| 2026-04-18 10:53 | 30.47585 | -86.51681 | 52 ft | 19 kts | 315° |
| 2026-04-18 10:53 | 30.47755 | -86.51678 | 55 ft | 54 kts | 11° |
| 2026-04-18 10:53 | 30.48466 | -86.51509 | 60 ft | 150 kts | 12° |
| 2026-04-18 10:53 | 30.49695 | -86.51197 | 531 ft | 198 kts | 12° |
| 2026-04-18 10:54 | 30.51150 | -86.50828 | 1281 ft | 233 kts | 12° |
| 2026-04-18 10:54 | 30.52833 | -86.50405 | 1775 ft | 259 kts | 10° |
| 2026-04-18 10:54 | 30.54648 | -86.50474 | 2051 ft | 264 kts | 343° |
| 2026-04-18 10:54 | 30.56405 | -86.51029 | 2504 ft | 264 kts | 346° |
| 2026-04-18 10:55 | 30.58228 | -86.51411 | 3094 ft | 268 kts | 350° |
| 2026-04-18 10:55 | 30.60094 | -86.51682 | 3648 ft | 273 kts | 353° |
| 2026-04-18 10:55 | 30.62001 | -86.51855 | 4177 ft | 277 kts | 356° |
| 2026-04-18 10:55 | 30.63921 | -86.51943 | 4698 ft | 281 kts | 358° |
| 2026-04-18 10:56 | 30.65891 | -86.51961 | 5205 ft | 284 kts | 360° |
| 2026-04-18 10:56 | 30.67870 | -86.51920 | 5710 ft | 285 kts | 1° |
| 2026-04-18 10:56 | 30.69864 | -86.51832 | 6227 ft | 288 kts | 2° |
| 2026-04-18 10:56 | 30.71872 | -86.51707 | 6748 ft | 289 kts | 2° |
| 2026-04-18 10:57 | 30.73888 | -86.51548 | 7240 ft | 291 kts | 3° |
| 2026-04-18 10:57 | 30.75910 | -86.51370 | 7733 ft | 292 kts | 4° |
| 2026-04-18 10:57 | 30.77942 | -86.51166 | 8241 ft | 294 kts | 4° |
| 2026-04-18 10:57 | 30.79984 | -86.50959 | 8751 ft | 295 kts | 5° |
| 2026-04-18 10:58 | 30.82036 | -86.50716 | 9274 ft | 297 kts | 5° |
| 2026-04-18 10:58 | 30.84095 | -86.50474 | 9802 ft | 298 kts | 5° |
| 2026-04-18 10:58 | 30.86171 | -86.50230 | 10300 ft | 301 kts | 5° |
| 2026-04-18 10:58 | 30.88296 | -86.49979 | 10804 ft | 314 kts | 5° |
| 2026-04-18 10:59 | 30.90519 | -86.49708 | 11286 ft | 327 kts | 5° |
| 2026-04-18 10:59 | 30.92821 | -86.49420 | 11754 ft | 336 kts | 4° |
| 2026-04-18 10:59 | 30.95175 | -86.49104 | 12221 ft | 346 kts | 4° |
| 2026-04-18 10:59 | 30.97577 | -86.48762 | 12684 ft | 357 kts | 4° |
| 2026-04-18 11:00 | 31.00099 | -86.48415 | 13159 ft | 368 kts | 3° |
| 2026-04-18 11:00 | 31.02652 | -86.48079 | 13610 ft | 370 kts | 3° |
| 2026-04-18 11:00 | 31.05227 | -86.47723 | 14045 ft | 375 kts | 3° |
| 2026-04-18 11:00 | 31.07826 | -86.47353 | 14447 ft | 377 kts | 2° |
| 2026-04-18 11:01 | 31.10439 | -86.47014 | 14837 ft | 379 kts | 2° |
| 2026-04-18 11:01 | 31.13068 | -86.46682 | 15238 ft | 381 kts | 2° |
| 2026-04-18 11:01 | 31.15713 | -86.46340 | 15608 ft | 383 kts | 2° |
| 2026-04-18 11:02 | 31.21042 | -86.45638 | 16347 ft | 387 kts | 2° |
| 2026-04-18 11:02 | 31.23725 | -86.45276 | 16708 ft | 389 kts | 2° |
| 2026-04-18 11:02 | 31.26390 | -86.44911 | 17066 ft | 391 kts | 2° |
| 2026-04-18 11:02 | 31.29101 | -86.44540 | 17428 ft | 393 kts | 2° |
| 2026-04-18 11:03 | 31.31825 | -86.44166 | 17777 ft | 395 kts | 2° |
| 2026-04-18 11:03 | 31.34564 | -86.43787 | 18124 ft | 397 kts | 2° |
| 2026-04-18 11:03 | 31.37314 | -86.43397 | 18453 ft | 399 kts | 2° |
| 2026-04-18 11:03 | 31.40073 | -86.43036 | 18781 ft | 400 kts | 1° |
| 2026-04-18 11:04 | 31.42848 | -86.42694 | 19128 ft | 401 kts | 1° |
| 2026-04-18 11:04 | 31.45631 | -86.42350 | 19448 ft | 404 kts | 1° |
| 2026-04-18 11:04 | 31.48427 | -86.41999 | 19787 ft | 404 kts | 1° |
| 2026-04-18 11:04 | 31.51234 | -86.41646 | 20117 ft | 407 kts | 1° |
| 2026-04-18 11:05 | 31.54055 | -86.41287 | 20442 ft | 408 kts | 1° |
| 2026-04-18 11:05 | 31.56879 | -86.40912 | 20775 ft | 410 kts | 2° |
| 2026-04-18 11:05 | 31.59724 | -86.40494 | 21094 ft | 412 kts | 2° |
| 2026-04-18 11:05 | 31.62564 | -86.40070 | 21600 ft | 409 kts | 2° |
| 2026-04-18 11:06 | 31.65391 | -86.39682 | 22244 ft | 411 kts | 1° |
| 2026-04-18 11:06 | 31.68256 | -86.39308 | 22907 ft | 417 kts | 1° |
| 2026-04-18 11:06 | 31.71159 | -86.38926 | 23568 ft | 422 kts | 1° |
| 2026-04-18 11:06 | 31.74096 | -86.38534 | 24133 ft | 426 kts | 1° |
| 2026-04-18 11:07 | 31.77057 | -86.38136 | 24704 ft | 430 kts | 1° |
| 2026-04-18 11:07 | 31.80037 | -86.37725 | 25281 ft | 432 kts | 1° |
| 2026-04-18 11:07 | 31.83026 | -86.37307 | 25868 ft | 434 kts | 1° |
| 2026-04-18 11:07 | 31.85987 | -86.36889 | 26461 ft | 434 kts | 1° |
| 2026-04-18 11:08 | 31.89026 | -86.36451 | 27083 ft | 434 kts | 0° |
| 2026-04-18 11:08 | 31.92023 | -86.36051 | 27703 ft | 433 kts | 360° |
| 2026-04-18 11:08 | 31.95019 | -86.35665 | 28342 ft | 432 kts | 360° |
| 2026-04-18 11:08 | 31.97964 | -86.35281 | 28988 ft | 430 kts | 360° |
| 2026-04-18 11:09 | 32.00931 | -86.34883 | 29656 ft | 428 kts | 360° |
| 2026-04-18 11:09 | 32.03884 | -86.34475 | 30301 ft | 426 kts | 360° |
| 2026-04-18 11:09 | 32.06814 | -86.34063 | 30889 ft | 422 kts | 360° |
| 2026-04-18 11:09 | 32.09718 | -86.33649 | 31498 ft | 418 kts | 359° |
| 2026-04-18 11:10 | 32.12595 | -86.33265 | 31993 ft | 417 kts | 359° |
| 2026-04-18 11:10 | 32.15521 | -86.32883 | 32018 ft | 428 kts | 359° |
| 2026-04-18 11:10 | 32.18522 | -86.32498 | 32026 ft | 439 kts | 359° |
| 2026-04-18 11:10 | 32.21587 | -86.32161 | 32012 ft | 444 kts | 353° |
| 2026-04-18 11:11 | 32.24621 | -86.32638 | 32012 ft | 439 kts | 339° |
| 2026-04-18 11:11 | 32.27558 | -86.33676 | 32070 ft | 443 kts | 336° |
| 2026-04-18 11:11 | 32.33497 | -86.35989 | 32044 ft | 455 kts | 336° |
| 2026-04-18 11:12 | 32.39571 | -86.38272 | 31992 ft | 458 kts | 337° |
| 2026-04-18 11:12 | 32.45607 | -86.40484 | 31989 ft | 457 kts | 337° |
| 2026-04-18 11:13 | 32.51728 | -86.42719 | 31998 ft | 458 kts | 337° |
| 2026-04-18 11:13 | 32.57778 | -86.44924 | 32003 ft | 458 kts | 337° |
| 2026-04-18 11:14 | 32.63874 | -86.47156 | 32003 ft | 458 kts | 337° |
| 2026-04-18 11:14 | 32.69968 | -86.49385 | 32010 ft | 458 kts | 337° |
| 2026-04-18 11:15 | 32.76072 | -86.51613 | 32017 ft | 459 kts | 337° |
| 2026-04-18 11:15 | 32.82190 | -86.53841 | 32016 ft | 459 kts | 337° |
| 2026-04-18 11:16 | 32.88269 | -86.56046 | 32012 ft | 459 kts | 337° |
| 2026-04-18 11:16 | 32.94395 | -86.58261 | 32012 ft | 459 kts | 337° |
| 2026-04-18 11:17 | 33.00512 | -86.60465 | 32020 ft | 460 kts | 337° |
| 2026-04-18 11:17 | 33.06636 | -86.62664 | 32022 ft | 459 kts | 337° |
| 2026-04-18 11:18 | 33.12749 | -86.64850 | 32024 ft | 459 kts | 337° |
| 2026-04-18 11:18 | 33.18831 | -86.67121 | 32029 ft | 458 kts | 336° |
| 2026-04-18 11:19 | 33.24903 | -86.69438 | 32027 ft | 458 kts | 336° |
| 2026-04-18 11:19 | 33.30995 | -86.71715 | 32020 ft | 459 kts | 337° |
| 2026-04-18 11:20 | 33.37117 | -86.73886 | 32024 ft | 459 kts | 337° |
| 2026-04-18 11:20 | 33.43222 | -86.76142 | 32038 ft | 458 kts | 336° |
| 2026-04-18 11:21 | 33.49263 | -86.78422 | 32045 ft | 458 kts | 336° |
| 2026-04-18 11:21 | 33.55359 | -86.80715 | 32048 ft | 459 kts | 336° |
| 2026-04-18 11:22 | 33.61458 | -86.83003 | 32049 ft | 459 kts | 336° |
| 2026-04-18 11:22 | 33.67569 | -86.85280 | 32043 ft | 462 kts | 335° |
| 2026-04-18 11:23 | 33.73787 | -86.87539 | 32028 ft | 468 kts | 335° |
| 2026-04-18 11:23 | 33.80008 | -86.89796 | 32019 ft | 465 kts | 334° |
| 2026-04-18 11:24 | 33.86170 | -86.92135 | 32010 ft | 464 kts | 334° |
| 2026-04-18 11:24 | 33.92287 | -86.94470 | 32003 ft | 464 kts | 334° |
| 2026-04-18 11:25 | 33.98451 | -86.96800 | 32012 ft | 464 kts | 334° |
| 2026-04-18 11:25 | 34.04618 | -86.99124 | 32012 ft | 464 kts | 334° |
| 2026-04-18 11:26 | 34.10782 | -87.01441 | 32015 ft | 464 kts | 334° |
| 2026-04-18 11:26 | 34.15908 | -87.03358 | 32025 ft | 463 kts | 334° |
| 2026-04-18 11:27 | 34.22064 | -87.05660 | 32028 ft | 463 kts | 334° |
| 2026-04-18 11:27 | 34.28224 | -87.07948 | 32022 ft | 462 kts | 334° |
| 2026-04-18 11:28 | 34.34347 | -87.10222 | 32014 ft | 462 kts | 334° |
| 2026-04-18 11:28 | 34.37421 | -87.11379 | 31746 ft | 465 kts | 334° |
| 2026-04-18 11:28 | 34.40495 | -87.12588 | 31312 ft | 460 kts | 333° |
| 2026-04-18 11:29 | 34.43523 | -87.13780 | 30890 ft | 457 kts | 334° |
| 2026-04-18 11:29 | 34.46559 | -87.14935 | 30488 ft | 457 kts | 334° |
| 2026-04-18 11:29 | 34.49596 | -87.16088 | 30097 ft | 457 kts | 334° |
| 2026-04-18 11:29 | 34.52632 | -87.17250 | 29626 ft | 456 kts | 334° |
| 2026-04-18 11:30 | 34.55655 | -87.18416 | 29178 ft | 455 kts | 334° |
| 2026-04-18 11:30 | 34.58658 | -87.19581 | 28729 ft | 450 kts | 334° |
| 2026-04-18 11:30 | 34.61631 | -87.20738 | 28284 ft | 448 kts | 334° |
| 2026-04-18 11:30 | 34.64601 | -87.21859 | 27847 ft | 447 kts | 335° |
| 2026-04-18 11:31 | 34.67575 | -87.22957 | 27411 ft | 445 kts | 335° |
| 2026-04-18 11:31 | 34.70533 | -87.24053 | 26984 ft | 443 kts | 335° |
| 2026-04-18 11:31 | 34.73481 | -87.25155 | 26565 ft | 442 kts | 335° |
| 2026-04-18 11:31 | 34.76485 | -87.26034 | 26124 ft | 447 kts | 342° |
| 2026-04-18 11:32 | 34.79562 | -87.26621 | 25721 ft | 447 kts | 344° |
| 2026-04-18 11:32 | 34.82595 | -87.27164 | 25341 ft | 446 kts | 344° |
| 2026-04-18 11:32 | 34.85660 | -87.27721 | 24946 ft | 444 kts | 344° |
| 2026-04-18 11:32 | 34.88713 | -87.28282 | 24559 ft | 443 kts | 344° |
| 2026-04-18 11:33 | 34.91750 | -87.28849 | 24176 ft | 441 kts | 344° |
| 2026-04-18 11:33 | 34.94781 | -87.29429 | 23791 ft | 440 kts | 344° |
| 2026-04-18 11:33 | 34.97798 | -87.30014 | 23404 ft | 439 kts | 344° |
| 2026-04-18 11:33 | 35.00807 | -87.30605 | 22959 ft | 436 kts | 344° |
| 2026-04-18 11:34 | 35.03796 | -87.31198 | 22514 ft | 433 kts | 344° |
| 2026-04-18 11:34 | 35.06763 | -87.31794 | 22076 ft | 430 kts | 344° |
| 2026-04-18 11:34 | 35.09717 | -87.32392 | 21646 ft | 428 kts | 344° |
| 2026-04-18 11:34 | 35.12648 | -87.32994 | 21222 ft | 426 kts | 344° |
| 2026-04-18 11:35 | 35.15560 | -87.33599 | 20804 ft | 423 kts | 344° |
| 2026-04-18 11:35 | 35.18456 | -87.34208 | 20392 ft | 421 kts | 344° |
| 2026-04-18 11:35 | 35.21342 | -87.34822 | 19984 ft | 419 kts | 344° |
| 2026-04-18 11:35 | 35.24205 | -87.35438 | 19580 ft | 416 kts | 344° |
| 2026-04-18 11:36 | 35.27053 | -87.36050 | 19177 ft | 415 kts | 345° |
| 2026-04-18 11:36 | 35.29895 | -87.36624 | 18790 ft | 413 kts | 345° |
| 2026-04-18 11:36 | 35.32724 | -87.37198 | 18392 ft | 411 kts | 345° |
| 2026-04-18 11:36 | 35.35502 | -87.37769 | 17974 ft | 409 kts | 345° |
| 2026-04-18 11:37 | 35.38307 | -87.38353 | 17530 ft | 407 kts | 345° |
| 2026-04-18 11:37 | 35.41097 | -87.38934 | 17095 ft | 405 kts | 345° |
| 2026-04-18 11:37 | 35.43868 | -87.39512 | 16666 ft | 403 kts | 345° |
| 2026-04-18 11:37 | 35.46627 | -87.40087 | 16246 ft | 401 kts | 345° |
| 2026-04-18 11:38 | 35.49369 | -87.40659 | 15828 ft | 399 kts | 345° |
| 2026-04-18 11:38 | 35.52108 | -87.41227 | 15419 ft | 398 kts | 345° |
| 2026-04-18 11:38 | 35.54835 | -87.41788 | 15011 ft | 396 kts | 345° |
| 2026-04-18 11:38 | 35.57516 | -87.42339 | 14615 ft | 393 kts | 345° |
| 2026-04-18 11:39 | 35.60157 | -87.42875 | 14199 ft | 378 kts | 345° |
| 2026-04-18 11:39 | 35.62735 | -87.43393 | 13797 ft | 371 kts | 345° |
| 2026-04-18 11:39 | 35.65263 | -87.43894 | 13357 ft | 365 kts | 345° |
| 2026-04-18 11:39 | 35.67755 | -87.44383 | 12917 ft | 360 kts | 344° |
| 2026-04-18 11:40 | 35.70210 | -87.44889 | 12479 ft | 355 kts | 344° |
| 2026-04-18 11:40 | 35.72628 | -87.45373 | 12061 ft | 350 kts | 344° |
| 2026-04-18 11:40 | 35.75028 | -87.45844 | 11647 ft | 347 kts | 344° |
| 2026-04-18 11:40 | 35.77398 | -87.46345 | 11243 ft | 344 kts | 343° |
| 2026-04-18 11:41 | 35.79786 | -87.46684 | 10802 ft | 353 kts | 356° |
| 2026-04-18 11:41 | 35.82209 | -87.45920 | 10200 ft | 366 kts | 25° |
| 2026-04-18 11:41 | 35.84142 | -87.43931 | 9662 ft | 361 kts | 54° |
| 2026-04-18 11:41 | 35.85267 | -87.41286 | 9385 ft | 341 kts | 70° |
| 2026-04-18 11:42 | 35.86153 | -87.38729 | 9759 ft | 309 kts | 69° |
| 2026-04-18 11:42 | 35.87031 | -87.36270 | 9782 ft | 326 kts | 70° |
| 2026-04-18 11:42 | 35.87579 | -87.33529 | 9282 ft | 331 kts | 96° |
| 2026-04-18 11:42 | 35.87253 | -87.30790 | 8871 ft | 313 kts | 110° |
| 2026-04-18 11:43 | 35.86802 | -87.28237 | 8704 ft | 299 kts | 109° |
| 2026-04-18 11:43 | 35.86387 | -87.25754 | 8506 ft | 295 kts | 109° |
| 2026-04-18 11:43 | 35.85960 | -87.23262 | 8243 ft | 299 kts | 109° |
| 2026-04-18 11:43 | 35.85519 | -87.20747 | 7952 ft | 300 kts | 109° |
| 2026-04-18 11:44 | 35.85091 | -87.18233 | 7641 ft | 299 kts | 108° |
| 2026-04-18 11:44 | 35.84683 | -87.15736 | 7346 ft | 294 kts | 108° |
| 2026-04-18 11:44 | 35.84279 | -87.13284 | 7051 ft | 290 kts | 108° |
| 2026-04-18 11:44 | 35.83888 | -87.10908 | 6939 ft | 281 kts | 108° |
| 2026-04-18 11:45 | 35.83500 | -87.08558 | 6995 ft | 282 kts | 108° |
| 2026-04-18 11:45 | 35.83111 | -87.06146 | 7013 ft | 290 kts | 108° |
| 2026-04-18 11:45 | 35.82763 | -87.03669 | 6787 ft | 302 kts | 97° |
| 2026-04-18 11:45 | 35.83152 | -87.01049 | 6069 ft | 323 kts | 67° |
| 2026-04-18 11:46 | 35.84500 | -86.98788 | 5262 ft | 330 kts | 45° |
| 2026-04-18 11:46 | 35.86053 | -86.96805 | 4994 ft | 312 kts | 46° |
| 2026-04-18 11:46 | 35.87450 | -86.94881 | 4808 ft | 295 kts | 48° |
| 2026-04-18 11:46 | 35.88760 | -86.93006 | 4551 ft | 283 kts | 49° |
| 2026-04-18 11:47 | 35.89998 | -86.91190 | 4372 ft | 269 kts | 49° |
| 2026-04-18 11:47 | 35.91161 | -86.89445 | 4322 ft | 258 kts | 50° |
| 2026-04-18 11:47 | 35.92270 | -86.87728 | 4342 ft | 256 kts | 51° |
| 2026-04-18 11:47 | 35.93390 | -86.85957 | 4348 ft | 267 kts | 51° |
| 2026-04-18 11:48 | 35.94537 | -86.84154 | 4266 ft | 266 kts | 51° |
| 2026-04-18 11:48 | 35.95676 | -86.82359 | 4173 ft | 266 kts | 51° |
| 2026-04-18 11:48 | 35.96808 | -86.80561 | 4106 ft | 263 kts | 51° |
| 2026-04-18 11:48 | 35.97925 | -86.78792 | 4027 ft | 265 kts | 51° |
| 2026-04-18 11:49 | 35.99049 | -86.77021 | 3796 ft | 265 kts | 50° |
| 2026-04-18 11:49 | 36.00174 | -86.75230 | 3481 ft | 263 kts | 50° |
| 2026-04-18 11:49 | 36.01420 | -86.73637 | 2950 ft | 261 kts | 31° |
| 2026-04-18 11:49 | 36.03020 | -86.72687 | 2417 ft | 252 kts | 18° |
| 2026-04-18 11:50 | 36.04624 | -86.71809 | 1966 ft | 249 kts | 21° |
| 2026-04-18 11:50 | 36.06135 | -86.70961 | 1649 ft | 225 kts | 21° |
| 2026-04-18 11:50 | 36.07529 | -86.70298 | 1401 ft | 206 kts | 17° |
| 2026-04-18 11:50 | 36.08849 | -86.69807 | 1189 ft | 190 kts | 17° |
| 2026-04-18 11:51 | 36.10064 | -86.69322 | 949 ft | 178 kts | 19° |
| 2026-04-18 11:51 | 36.11214 | -86.68856 | 717 ft | 169 kts | 18° |
| 2026-04-18 11:51 | 36.12303 | -86.68450 | 589 ft | 154 kts | 15° |
| 2026-04-18 11:51 | 36.13091 | -86.68125 | 579 ft | 53 kts | 17° |
| 2026-04-18 11:52 | 36.13231 | -86.68072 | 579 ft | 25 kts | 17° |
| 2026-04-18 11:52 | 36.13398 | -86.67981 | 575 ft | 26 kts | 56° |
| 2026-04-18 11:52 | 36.13413 | -86.67831 | 574 ft | 10 kts | 45° |
| 2026-04-18 11:52 | 36.13522 | -86.67734 | 570 ft | 23 kts | 71° |
| 2026-04-18 11:53 | 36.13487 | -86.67547 | 566 ft | 22 kts | 107° |
| 2026-04-18 11:53 | 36.13450 | -86.67401 | 570 ft | 14 kts | 108° |
| 2026-04-18 11:53 | 36.13423 | -86.67291 | 567 ft | 13 kts | 102° |
| 2026-04-18 11:53 | 36.13424 | -86.67184 | 566 ft | 12 kts | 93° |
| 2026-04-18 11:54 | 36.13367 | -86.67129 | 568 ft | 6 kts | 193° |
| 2026-04-18 11:54 | 36.13330 | -86.67151 | 570 ft | 6 kts | 202° |
| 2026-04-18 11:54 | 36.13318 | -86.67157 | 574 ft | 0 kts | 202° |